Time;durP1;ratioP1;P1;durP2;ratioP2;P2;SDS_P1;SDS_P2;PMS_P1;PMS_P2;Temp;Humidity;BMP_temperature;BMP_pressure;BME280_temperature;BME280_humidity;BME280_pressure;Samples;Min_cycle;Max_cycle;Signal;HPM_P1;HPM_P2
2022/10/26 00:00:26;;;;;;;;;4.67;4.67;;;;;17.27;70.12;100285.31;5090312;27;45487;-63
2022/10/26 00:02:53;;;;;;;;;4.67;4.67;;;;;17.27;70.20;100292.44;5089899;27;45477;-62
2022/10/26 00:05:20;;;;;;;;;3.00;3.00;;;;;17.25;70.05;100287.25;5095868;27;45396;-64
2022/10/26 00:07:46;;;;;;;;;3.00;3.00;;;;;17.20;69.98;100284.91;5095508;27;46464;-65
2022/10/26 00:10:11;;;;;;;;;4.33;4.33;;;;;17.23;70.04;100287.34;5093541;27;45476;-63
2022/10/26 00:12:37;;;;;;;;;4.67;4.67;;;;;17.23;70.14;100286.50;5095864;27;45480;-64
2022/10/26 00:15:02;;;;;;;;;3.67;3.67;;;;;17.23;70.06;100289.16;5094941;27;55724;-63
2022/10/26 00:17:28;;;;;;;;;5.00;5.00;;;;;17.22;70.06;100285.66;5095331;27;47192;-65
2022/10/26 00:19:53;;;;;;;;;5.33;4.00;;;;;17.21;70.08;100283.94;5092086;27;45444;-63
2022/10/26 00:22:19;;;;;;;;;4.00;4.00;;;;;17.21;69.97;100289.25;5096030;27;45487;-65
2022/10/26 00:24:44;;;;;;;;;3.67;3.67;;;;;17.21;70.20;100283.94;5099210;27;45540;-64
2022/10/26 00:27:09;;;;;;;;;5.00;5.00;;;;;17.26;69.65;100282.78;5098410;27;48537;-63
2022/10/26 00:29:35;;;;;;;;;5.67;4.33;;;;;17.23;69.58;100275.88;5088089;27;53584;-63
2022/10/26 00:32:00;;;;;;;;;3.00;3.00;;;;;17.24;69.78;100285.53;5097005;27;45470;-64
2022/10/26 00:34:25;;;;;;;;;3.33;3.33;;;;;17.24;69.87;100285.53;5097346;27;45370;-63
2022/10/26 00:36:50;;;;;;;;;4.00;4.00;;;;;17.24;69.73;100282.88;5097793;27;60799;-65
2022/10/26 00:39:16;;;;;;;;;3.67;3.67;;;;;17.25;69.70;100286.38;5093031;27;45547;-62
2022/10/26 00:41:41;;;;;;;;;3.00;3.00;;;;;17.24;70.04;100285.53;5096581;27;45568;-62
2022/10/26 00:44:56;;;;;;;;;3.00;2.67;;;;;17.26;69.46;100296.09;5099245;27;45731;-62
2022/10/26 00:47:34;;;;;;;;;3.67;3.67;;;;;17.25;69.63;100295.22;5096166;27;45546;-65
2022/10/26 00:50:07;;;;;;;;;4.00;4.00;;;;;17.24;69.75;100280.22;5081930;27;45473;-65
2022/10/26 00:52:33;;;;;;;;;4.00;4.00;;;;;17.19;69.74;100272.59;5091991;27;45429;-65
2022/10/26 00:54:58;;;;;;;;;4.00;4.00;;;;;17.20;69.79;100273.44;5098498;27;45385;-62
2022/10/26 00:57:24;;;;;;;;;5.00;3.67;;;;;17.22;69.45;100282.13;5098183;27;46103;-65
2022/10/26 00:59:54;;;;;;;;;3.33;3.33;;;;;17.20;69.78;100292.03;5095515;27;45568;-68
2022/10/26 01:02:19;;;;;;;;;6.33;4.67;;;;;17.23;69.50;100299.78;5092482;27;45401;-62
2022/10/26 01:04:46;;;;;;;;;4.67;4.67;;;;;17.25;69.48;100312.97;5098198;27;45417;-62
2022/10/26 01:07:12;;;;;;;;;5.00;4.33;;;;;17.27;70.01;100319.03;5098166;27;45439;-62
2022/10/26 01:09:38;;;;;;;;;4.33;4.33;;;;;17.25;69.79;100324.47;5095201;27;45386;-65
2022/10/26 01:12:04;;;;;;;;;4.00;4.00;;;;;17.28;69.78;100328.72;5098598;27;45491;-64
2022/10/26 01:14:30;;;;;;;;;5.67;5.67;;;;;17.28;69.47;100324.25;5097882;27;45586;-63
2022/10/26 01:17:30;;;;;;;;;7.00;5.33;;;;;17.26;70.09;100334.13;5095833;27;45459;-64
2022/10/26 01:20:17;;;;;;;;;6.67;5.67;;;;;17.24;69.98;100325.41;5092831;27;45547;-63
2022/10/26 01:23:11;;;;;;;;;9.00;8.00;;;;;17.24;70.26;100338.69;5097011;27;45410;-64
2022/10/26 01:26:16;;;;;;;;;12.67;11.00;;;;;17.20;70.54;100337.22;5092867;27;45411;-66
2022/10/26 01:29:13;;;;;;;;;12.33;11.33;;;;;17.20;70.81;100342.53;5094454;27;46216;-63
2022/10/26 01:31:44;;;;;;;;;10.00;10.00;;;;;17.22;70.13;100343.25;5093945;27;45508;-63
2022/10/26 01:34:20;;;;;;;;;9.33;9.33;;;;;17.18;70.52;100339.13;5082558;27;45413;-62
2022/10/26 01:37:01;;;;;;;;;10.00;10.00;;;;;17.13;70.58;100339.41;5097886;27;45320;-64
2022/10/26 01:39:43;;;;;;;;;7.00;7.00;;;;;17.06;71.10;100335.47;5093732;27;46210;-64
2022/10/26 01:42:11;;;;;;;;;8.33;8.00;;;;;17.04;70.98;100341.84;5089319;27;45427;-64
2022/10/26 01:44:44;;;;;;;;;8.00;7.00;;;;;17.04;70.94;100341.84;5094072;27;45541;-64
2022/10/26 01:47:13;;;;;;;;;8.00;7.67;;;;;17.03;70.99;100342.78;5087575;27;45590;-65
2022/10/26 01:49:44;;;;;;;;;6.67;6.67;;;;;17.01;70.72;100345.56;5094887;27;45498;-64
2022/10/26 01:52:10;;;;;;;;;6.67;6.33;;;;;17.02;71.24;100341.09;5097743;27;45492;-65
2022/10/26 01:54:36;;;;;;;;;6.00;6.00;;;;;17.01;71.02;100334.94;5093771;27;45476;-63
2022/10/26 01:57:05;;;;;;;;;6.00;6.00;;;;;17.04;70.80;100341.84;5096000;27;45438;-62
2022/10/26 01:59:46;;;;;;;;;5.00;5.00;;;;;17.03;71.04;100333.00;5095944;27;46288;-63
2022/10/26 02:02:39;;;;;;;;;6.00;6.00;;;;;17.04;71.00;100332.06;5095953;27;45432;-65
2022/10/26 02:05:07;;;;;;;;;7.00;5.00;;;;;17.03;70.78;100356.91;5094945;27;45542;-63
2022/10/26 02:08:09;;;;;;;;;6.00;5.00;;;;;17.05;70.97;100360.34;5085243;27;45477;-65
2022/10/26 02:10:43;;;;;;;;;5.67;5.67;;;;;17.07;71.13;100362.91;5077603;27;46178;-63
2022/10/26 02:13:26;;;;;;;;;3.67;3.67;;;;;17.07;70.52;100365.56;5082836;27;45454;-64
2022/10/26 02:16:13;;;;;;;;;3.67;3.67;;;;;17.08;70.84;100364.59;5093099;27;45513;-64
2022/10/26 02:18:59;;;;;;;;;4.67;4.67;;;;;17.09;70.88;100368.97;5097278;27;45467;-65
2022/10/26 02:21:34;;;;;;;;;4.00;4.00;;;;;17.10;70.74;100362.69;5097047;27;45422;-63
2022/10/26 02:24:00;;;;;;;;;6.33;5.00;;;;;17.13;70.57;100360.66;5094639;27;45376;-63
2022/10/26 02:26:29;;;;;;;;;5.00;5.00;;;;;17.14;70.49;100359.75;5085115;27;45465;-65
2022/10/26 02:29:01;;;;;;;;;5.33;4.00;;;;;17.16;70.65;100360.47;5096690;27;45571;-65
2022/10/26 02:31:27;;;;;;;;;5.33;5.33;;;;;17.18;70.57;100361.22;5096836;27;45744;-65
2022/10/26 02:33:55;;;;;;;;;3.67;3.67;;;;;17.20;70.33;100366.44;5096856;27;45470;-63
2022/10/26 02:36:26;;;;;;;;;3.00;3.00;;;;;17.23;70.38;100371.56;5095185;27;45567;-66
2022/10/26 02:38:53;;;;;;;;;5.00;5.00;;;;;17.25;70.07;100372.31;5096868;27;45420;-63
2022/10/26 02:41:21;;;;;;;;;3.67;2.67;;;;;17.27;69.83;100370.38;5077195;27;45559;-65
2022/10/26 02:43:53;;;;;;;;;3.33;3.33;;;;;17.29;70.13;100383.59;5096002;27;45416;-63
2022/10/26 02:46:23;;;;;;;;;4.33;4.33;;;;;17.29;69.97;100380.94;5095491;27;45726;-62
2022/10/26 02:48:49;;;;;;;;;5.00;3.00;;;;;17.34;69.87;100379.66;5097062;27;45397;-65
2022/10/26 02:51:21;;;;;;;;;4.00;4.00;;;;;17.36;69.87;100376.91;5096330;27;46145;-63
2022/10/26 02:53:55;;;;;;;;;3.00;3.00;;;;;17.39;69.91;100371.38;5096595;27;45573;-64
2022/10/26 02:56:27;;;;;;;;;4.00;3.00;;;;;17.40;69.66;100365.94;5082341;27;45511;-64
2022/10/26 02:58:58;;;;;;;;;3.00;3.00;;;;;17.41;69.54;100358.84;5096620;27;45567;-63
2022/10/26 03:01:24;;;;;;;;;5.67;3.67;;;;;17.43;69.49;100362.22;5095121;27;46265;-63
2022/10/26 03:03:49;;;;;;;;;3.00;2.67;;;;;17.44;69.44;100366.59;5096405;27;45335;-64
2022/10/26 03:06:22;;;;;;;;;3.00;3.00;;;;;17.45;69.51;100363.81;5093762;27;45820;-62
2022/10/26 03:08:47;;;;;;;;;5.67;4.33;;;;;17.47;69.38;100358.41;5082600;27;45598;-64
2022/10/26 03:11:13;;;;;;;;;3.67;3.67;;;;;17.49;69.48;100368.94;5096343;27;45409;-62
2022/10/26 03:13:38;;;;;;;;;4.67;4.67;;;;;17.51;69.33;100367.03;5096275;27;45429;-64
2022/10/26 03:16:03;;;;;;;;;4.67;4.67;;;;;17.50;69.32;100362.69;5085454;27;45509;-65
2022/10/26 03:18:29;;;;;;;;;3.67;3.00;;;;;17.51;69.37;100377.66;5095862;27;45646;-62
2022/10/26 03:20:54;;;;;;;;;5.33;3.00;;;;;17.51;69.25;100382.97;5095794;27;55010;-64
2022/10/26 03:23:19;;;;;;;;;4.00;3.00;;;;;17.51;69.37;100385.63;5094462;27;45682;-63
2022/10/26 03:25:45;;;;;;;;;4.00;4.00;;;;;17.50;69.50;100387.47;5086071;27;49636;-64
2022/10/26 03:28:10;;;;;;;;;3.00;3.00;;;;;17.49;69.26;100396.41;5096205;27;45396;-64
2022/10/26 03:30:35;;;;;;;;;2.67;2.67;;;;;17.52;69.35;100408.63;5093821;27;60246;-63
2022/10/26 03:33:00;;;;;;;;;5.33;4.33;;;;;17.52;69.32;100403.31;5096253;27;45612;-65
2022/10/26 03:35:26;;;;;;;;;5.00;3.00;;;;;17.50;69.85;100407.88;5093149;27;45496;-62
2022/10/26 03:37:51;;;;;;;;;4.00;4.00;;;;;17.51;69.63;100410.41;5096141;27;45489;-64
2022/10/26 03:40:17;;;;;;;;;3.67;3.67;;;;;17.49;69.68;100404.38;5095787;27;45460;-62
2022/10/26 03:42:42;;;;;;;;;3.00;3.00;;;;;17.49;69.34;100398.19;5095674;27;45445;-63
2022/10/26 03:45:08;;;;;;;;;5.00;3.00;;;;;17.49;69.30;100411.47;5090497;27;45498;-62
2022/10/26 03:47:39;;;;;;;;;2.67;2.33;;;;;17.50;69.55;100415.84;5096150;27;45602;-65
2022/10/26 03:50:04;;;;;;;;;4.00;4.00;;;;;17.47;69.30;100419.56;5095766;27;46265;-62
2022/10/26 03:52:30;;;;;;;;;4.33;4.33;;;;;17.45;69.62;100426.78;5095654;27;45466;-63
2022/10/26 03:54:55;;;;;;;;;4.00;4.00;;;;;17.43;69.52;100437.50;5093816;27;45535;-62
2022/10/26 03:57:20;;;;;;;;;6.00;3.00;;;;;17.43;69.42;100447.31;5098564;27;45439;-65
2022/10/26 03:59:46;;;;;;;;;3.00;3.00;;;;;17.43;69.73;100448.16;5097941;27;46509;-63
2022/10/26 04:02:13;;;;;;;;;1.67;1.67;;;;;17.42;69.50;100451.78;5099388;27;45359;-64
2022/10/26 04:04:38;;;;;;;;;4.00;4.00;;;;;17.41;69.67;100454.56;5095899;27;45550;-64
2022/10/26 04:07:03;;;;;;;;;2.00;2.00;;;;;17.39;69.21;100449.31;5088246;27;45585;-62
2022/10/26 04:09:28;;;;;;;;;7.00;4.00;;;;;17.40;69.47;100444.84;5098720;27;46281;-63
2022/10/26 04:11:54;;;;;;;;;4.00;3.00;;;;;17.39;69.41;100456.47;5098239;27;58644;-64
2022/10/26 04:14:19;;;;;;;;;3.33;3.33;;;;;17.38;69.57;100455.59;5098497;27;45435;-63
2022/10/26 04:16:44;;;;;;;;;2.67;2.67;;;;;17.37;69.20;100459.19;5083468;27;45950;-64
2022/10/26 04:19:10;;;;;;;;;3.33;3.33;;;;;17.35;69.53;100458.44;5095930;27;45411;-63
2022/10/26 04:21:35;;;;;;;;;4.00;4.00;;;;;17.31;69.30;100462.28;5091874;27;45621;-63
2022/10/26 04:24:01;;;;;;;;;4.33;4.33;;;;;17.35;69.61;100468.22;5098133;27;45378;-62
2022/10/26 04:26:27;;;;;;;;;3.00;3.00;;;;;17.34;69.54;100475.34;5097610;27;45381;-64
2022/10/26 04:28:52;;;;;;;;;2.00;2.00;;;;;17.33;69.27;100483.41;5098214;27;46233;-65
2022/10/26 04:31:18;;;;;;;;;2.67;2.67;;;;;17.32;69.76;100484.38;5099174;27;45361;-65
2022/10/26 04:33:43;;;;;;;;;3.25;2.00;;;;;17.29;69.58;100482.78;5093442;27;45478;-63
2022/10/26 04:36:08;;;;;;;;;3.33;3.33;;;;;17.26;69.95;100484.78;5098683;27;45352;-64
2022/10/26 04:38:34;;;;;;;;;3.67;3.67;;;;;17.27;69.93;100499.78;5098937;27;46265;-64
2022/10/26 04:40:59;;;;;;;;;3.67;3.67;;;;;17.25;70.11;100499.91;5092918;27;45473;-64
2022/10/26 04:43:24;;;;;;;;;3.33;3.33;;;;;17.23;69.92;100494.66;5098068;27;51280;-65
2022/10/26 04:45:54;;;;;;;;;3.00;3.00;;;;;17.21;70.23;100506.34;5099412;27;45302;-63
2022/10/26 04:48:19;;;;;;;;;4.67;4.67;;;;;17.21;69.91;100514.31;5098698;27;46849;-64
2022/10/26 04:50:44;;;;;;;;;3.67;3.67;;;;;17.20;70.06;100510.81;5095695;27;52580;-64
2022/10/26 04:53:10;;;;;;;;;3.00;3.00;;;;;17.19;70.22;100526.84;5098889;27;45542;-62
2022/10/26 04:55:35;;;;;;;;;1.67;1.67;;;;;17.16;70.02;100525.25;5098727;27;45464;-63
2022/10/26 04:58:01;;;;;;;;;4.33;3.33;;;;;17.15;70.13;100531.50;5098409;27;45392;-64
2022/10/26 05:00:26;;;;;;;;;2.67;2.67;;;;;17.15;70.32;100530.66;5096442;27;45383;-64
2022/10/26 05:02:57;;;;;;;;;4.00;4.00;;;;;17.16;69.90;100532.34;5095007;27;45557;-64
2022/10/26 05:05:22;;;;;;;;;3.33;3.33;;;;;17.17;70.22;100542.91;5098683;27;45445;-63
2022/10/26 05:07:55;;;;;;;;;3.00;3.00;;;;;17.16;69.97;100543.00;5097018;27;46459;-65
2022/10/26 05:10:21;;;;;;;;;3.67;3.67;;;;;17.15;69.96;100557.25;5097069;27;45525;-64
2022/10/26 05:12:54;;;;;;;;;3.00;3.00;;;;;17.15;69.59;100547.47;5095511;27;45452;-65
2022/10/26 05:15:19;;;;;;;;;4.00;4.00;;;;;17.15;69.63;100554.59;5094491;27;45614;-65
2022/10/26 05:17:45;;;;;;;;;4.67;4.67;;;;;17.14;69.64;100559.06;5086745;27;46388;-63
2022/10/26 05:20:12;;;;;;;;;3.00;3.00;;;;;17.13;69.68;100553.81;5093675;27;45512;-65
2022/10/26 05:22:39;;;;;;;;;1.33;1.33;;;;;17.11;69.66;100558.38;5085474;27;45452;-64
2022/10/26 05:25:04;;;;;;;;;5.00;4.00;;;;;17.10;70.01;100562.00;5098402;27;45347;-63
2022/10/26 05:27:30;;;;;;;;;2.67;2.67;;;;;17.08;70.00;100571.84;5085874;27;45431;-62
2022/10/26 05:29:55;;;;;;;;;5.67;4.67;;;;;17.10;69.93;100564.66;5096639;27;50417;-65
2022/10/26 05:32:21;;;;;;;;;3.67;3.67;;;;;17.08;70.11;100569.19;5097715;27;45385;-63
2022/10/26 05:34:46;;;;;;;;;6.33;5.33;;;;;17.09;70.05;100585.06;5096596;27;45523;-62
2022/10/26 05:37:11;;;;;;;;;4.33;4.33;;;;;17.08;69.99;100582.47;5096702;27;55998;-62
2022/10/26 05:39:36;;;;;;;;;4.00;4.00;;;;;17.09;69.99;100587.72;5094863;27;51293;-64
2022/10/26 05:42:02;;;;;;;;;6.00;5.00;;;;;17.08;69.84;100587.81;5110509;27;45420;-63
2022/10/26 05:44:27;;;;;;;;;3.00;3.00;;;;;17.07;70.25;100600.25;5095615;27;45404;-64
2022/10/26 05:46:52;;;;;;;;;2.67;2.67;;;;;17.03;70.19;100605.84;5089066;27;45415;-63
2022/10/26 05:49:18;;;;;;;;;4.00;4.00;;;;;17.06;70.21;100608.28;5094405;27;51192;-64
2022/10/26 05:51:43;;;;;;;;;5.67;5.67;;;;;17.05;70.01;100609.25;5090752;27;55850;-63
2022/10/26 05:54:08;;;;;;;;;3.67;3.67;;;;;17.03;70.49;100619.13;5089649;27;45373;-63
2022/10/26 05:56:39;;;;;;;;;4.00;4.00;;;;;17.04;70.17;100623.50;5097169;27;45447;-62
2022/10/26 05:59:11;;;;;;;;;7.33;5.00;;;;;17.04;69.95;100623.50;5083279;27;45429;-64
2022/10/26 06:01:53;;;;;;;;;3.67;3.67;;;;;17.04;70.48;100620.84;5080661;27;45475;-64
2022/10/26 06:04:21;;;;;;;;;5.00;5.00;;;;;17.02;70.18;100622.72;5089328;27;45511;-60
2022/10/26 06:06:53;;;;;;;;;4.67;4.67;;;;;16.99;70.01;100623.78;5083777;27;45488;-65
2022/10/26 06:09:19;;;;;;;;;6.67;5.33;;;;;16.97;70.15;100623.84;5091005;27;45350;-64
2022/10/26 06:11:45;;;;;;;;;4.00;4.00;;;;;16.96;70.28;100623.97;5096912;27;45401;-61
2022/10/26 06:14:11;;;;;;;;;5.67;4.00;;;;;16.95;70.22;100620.47;5093836;27;45572;-66
2022/10/26 06:16:56;;;;;;;;;5.67;5.67;;;;;16.92;70.40;100625.09;5082722;27;45444;-63
2022/10/26 06:19:38;;;;;;;;;4.00;4.00;;;;;16.91;70.43;100618.09;5085121;27;45498;-63
2022/10/26 06:22:20;;;;;;;;;4.00;4.00;;;;;16.87;70.64;100611.22;5086799;27;45334;-64
2022/10/26 06:25:21;;;;;;;;;7.00;6.00;;;;;16.86;70.60;100628.97;5087614;27;45548;-60
2022/10/26 06:28:04;;;;;;;;;8.33;4.00;;;;;16.84;70.42;100630.03;5084263;27;45414;-62
2022/10/26 06:30:30;;;;;;;;;4.00;4.00;;;;;16.84;70.75;100630.03;5085723;27;45516;-63
2022/10/26 06:32:55;;;;;;;;;7.00;6.00;;;;;16.84;71.20;100651.28;5085472;27;45903;-62
2022/10/26 06:35:44;;;;;;;;;5.00;5.00;;;;;16.81;70.48;100649.66;5091258;27;45548;-65
2022/10/26 06:38:15;;;;;;;;;5.00;5.00;;;;;16.82;70.91;100655.81;5096919;27;45511;-65
2022/10/26 06:40:44;;;;;;;;;5.00;5.00;;;;;16.82;70.63;100661.13;5096248;27;45476;-65
2022/10/26 06:43:34;;;;;;;;;7.67;5.67;;;;;16.81;70.58;100672.72;5096426;27;45520;-64
2022/10/26 06:46:38;;;;;;;;;10.00;10.00;;;;;16.77;70.40;100664.09;5079679;27;45358;-65
2022/10/26 06:49:27;;;;;;;;;9.67;5.67;;;;;16.76;70.58;100675.59;5095023;27;46141;-65
2022/10/26 06:52:04;;;;;;;;;3.67;3.67;;;;;16.72;70.42;100672.28;5095730;27;45594;-63
2022/10/26 06:54:50;;;;;;;;;6.67;5.33;;;;;16.71;70.53;100681.22;5087177;27;45578;-64
2022/10/26 06:57:20;;;;;;;;;7.33;6.33;;;;;16.70;70.67;100689.25;5093597;27;45589;-64
2022/10/26 07:00:03;;;;;;;;;10.33;9.33;;;;;16.67;70.39;100695.59;5094858;27;45376;-65
2022/10/26 07:02:29;;;;;;;;;7.00;7.00;;;;;16.69;70.83;100696.38;5095877;27;45405;-65
2022/10/26 07:04:54;;;;;;;;;7.00;7.00;;;;;16.69;71.11;100707.00;5095384;27;45365;-64
2022/10/26 07:07:22;;;;;;;;;10.67;9.67;;;;;16.69;70.89;100703.50;5095535;27;45370;-64
2022/10/26 07:09:47;;;;;;;;;4.00;4.00;;;;;16.66;70.58;100707.19;5095156;27;46278;-65
2022/10/26 07:12:13;;;;;;;;;7.00;7.00;;;;;16.69;70.64;100716.78;5095722;27;45467;-66
2022/10/26 07:14:38;;;;;;;;;7.00;6.00;;;;;16.63;70.80;100720.66;5095609;27;45541;-64
2022/10/26 07:17:04;;;;;;;;;12.67;11.33;;;;;16.62;70.49;100723.38;5081149;27;45619;-65
2022/10/26 07:19:29;;;;;;;;;8.33;8.33;;;;;16.63;70.95;100728.63;5095369;27;46145;-65
2022/10/26 07:21:55;;;;;;;;;5.67;5.67;;;;;16.61;70.75;100727.00;5095257;27;45489;-64
2022/10/26 07:24:22;;;;;;;;;5.33;5.00;;;;;16.59;70.95;100739.50;5095390;27;45491;-64
2022/10/26 07:26:47;;;;;;;;;5.00;5.00;;;;;16.57;71.69;100734.25;5095526;27;45598;-65
2022/10/26 07:29:13;;;;;;;;;6.67;6.67;;;;;16.56;71.14;100741.38;5095148;27;46314;-65
2022/10/26 07:31:38;;;;;;;;;9.67;9.67;;;;;16.57;70.90;100748.38;5096604;27;45495;-64
2022/10/26 07:34:04;;;;;;;;;10.00;9.00;;;;;16.57;71.43;100751.03;5099015;27;45447;-65
2022/10/26 07:36:29;;;;;;;;;4.67;4.67;;;;;16.60;71.14;100759.78;5099218;27;45526;-64
2022/10/26 07:38:54;;;;;;;;;4.00;4.00;;;;;16.65;70.95;100765.69;5098855;27;45338;-64
2022/10/26 07:41:20;;;;;;;;;6.00;6.00;;;;;16.66;71.58;100768.25;5098797;27;45401;-65
2022/10/26 07:43:46;;;;;;;;;6.33;4.33;;;;;16.68;70.84;100770.81;5099172;27;45574;-65
2022/10/26 07:46:12;;;;;;;;;6.00;6.00;;;;;16.68;71.12;100776.97;5099524;27;45470;-65
2022/10/26 07:48:38;;;;;;;;;4.00;4.00;;;;;16.68;71.14;100778.78;5099041;27;45455;-64
2022/10/26 07:51:04;;;;;;;;;7.00;7.00;;;;;16.69;71.07;100791.13;5098808;27;45428;-65
2022/10/26 07:53:29;;;;;;;;;4.33;3.00;;;;;16.72;71.29;100785.63;5098801;27;45480;-65
2022/10/26 07:55:56;;;;;;;;;4.67;4.67;;;;;16.77;70.76;100799.53;5098627;27;45494;-64
2022/10/26 07:58:24;;;;;;;;;6.00;6.00;;;;;16.81;70.63;100801.06;5098440;27;46073;-65
2022/10/26 08:00:50;;;;;;;;;8.33;8.33;;;;;16.83;70.95;100799.19;5097206;27;45473;-64
2022/10/26 08:03:16;;;;;;;;;7.67;7.67;;;;;16.85;70.61;100802.59;5098775;27;45424;-64
2022/10/26 08:05:42;;;;;;;;;7.00;6.00;;;;;16.89;70.62;100809.44;5098410;27;45513;-66
2022/10/26 08:08:07;;;;;;;;;6.33;6.33;;;;;16.87;71.06;100808.69;5098347;27;45482;-64
2022/10/26 08:10:33;;;;;;;;;15.33;12.67;;;;;16.94;71.24;100814.50;5098440;27;47246;-64
2022/10/26 08:12:58;;;;;;;;;5.33;5.33;;;;;16.99;70.64;100810.63;5098665;27;45445;-65
2022/10/26 08:15:24;;;;;;;;;7.00;7.00;;;;;17.06;70.75;100820.88;5094424;27;45492;-65
2022/10/26 08:17:49;;;;;;;;;5.33;4.00;;;;;17.09;70.74;100823.38;5087884;27;54722;-65
2022/10/26 08:20:14;;;;;;;;;5.00;5.00;;;;;17.15;70.19;100823.00;5098332;27;45535;-65
2022/10/26 08:22:40;;;;;;;;;5.33;5.33;;;;;17.20;70.25;100829.75;5098511;27;45504;-64
2022/10/26 08:25:05;;;;;;;;;16.33;15.00;;;;;17.25;69.95;100832.16;5098524;27;45601;-65
2022/10/26 08:27:30;;;;;;;;;13.67;12.67;;;;;17.28;70.24;100839.94;5098229;27;46081;-64
2022/10/26 08:29:56;;;;;;;;;6.00;5.00;;;;;17.30;70.42;100845.16;5098220;27;50517;-66
2022/10/26 08:32:21;;;;;;;;;10.67;10.33;;;;;17.34;69.73;100842.22;5098146;27;45549;-65
2022/10/26 08:34:46;;;;;;;;;5.33;5.33;;;;;17.37;70.18;100846.50;5098267;27;45390;-65
2022/10/26 08:37:12;;;;;;;;;6.33;4.67;;;;;17.41;69.67;100840.06;5097731;27;51436;-65
2022/10/26 08:39:37;;;;;;;;;5.00;4.00;;;;;17.39;69.57;100841.97;5098072;27;45535;-65
2022/10/26 08:42:29;;;;;;;;;5.67;3.67;;;;;17.44;70.06;100837.22;5097749;27;45398;-65
2022/10/26 08:45:01;;;;;;;;;3.67;3.67;;;;;17.50;70.00;100843.97;5098565;27;45449;-65
2022/10/26 08:47:41;;;;;;;;;6.33;4.67;;;;;17.50;69.75;100841.31;5097586;27;45465;-66
2022/10/26 08:50:13;;;;;;;;;6.33;6.00;;;;;17.53;69.72;100846.44;5097449;27;45389;-65
2022/10/26 08:52:50;;;;;;;;;7.00;6.00;;;;;17.58;70.00;100845.22;5097555;27;45463;-66
2022/10/26 08:55:22;;;;;;;;;11.33;11.33;;;;;17.63;69.76;100850.25;5097792;27;45441;-64
2022/10/26 08:57:48;;;;;;;;;6.67;5.33;;;;;17.66;69.25;100858.91;5097559;27;45499;-65
2022/10/26 09:00:22;;;;;;;;;5.00;4.00;;;;;17.68;69.33;100866.81;5097762;27;45397;-65
2022/10/26 09:02:57;;;;;;;;;7.67;7.67;;;;;17.73;69.51;100864.72;5097719;27;45535;-66
2022/10/26 09:05:35;;;;;;;;;8.33;7.00;;;;;17.79;69.31;100863.53;5097769;27;45432;-65
2022/10/26 09:08:12;;;;;;;;;6.33;6.33;;;;;17.82;69.43;100869.50;5097425;27;46393;-65
2022/10/26 09:11:06;;;;;;;;;7.33;7.00;;;;;17.85;68.95;100865.78;5097461;27;45475;-65
2022/10/26 09:14:13;;;;;;;;;5.00;5.00;;;;;17.88;68.92;100874.44;5095345;27;45555;-65
2022/10/26 09:17:09;;;;;;;;;6.67;5.00;;;;;17.93;68.84;100878.63;5076602;27;45557;-65
2022/10/26 09:19:50;;;;;;;;;5.67;3.00;;;;;17.98;68.95;100881.88;5097422;27;46328;-66
2022/10/26 09:22:37;;;;;;;;;8.00;7.33;;;;;18.00;68.80;100879.94;5097459;27;45507;-64
2022/10/26 09:25:17;;;;;;;;;6.00;5.00;;;;;18.04;68.36;100886.81;5097789;27;45447;-64
2022/10/26 09:27:49;;;;;;;;;4.67;4.67;;;;;18.12;68.70;100881.84;5097741;27;45503;-65
2022/10/26 09:30:18;;;;;;;;;6.67;6.67;;;;;18.19;68.24;100890.31;5096999;27;46204;-65
2022/10/26 09:32:58;;;;;;;;;11.67;10.33;;;;;18.23;68.10;100881.19;5097176;27;45409;-66
2022/10/26 09:35:48;;;;;;;;;6.33;6.33;;;;;18.29;67.78;100884.31;5097184;27;45307;-64
2022/10/26 09:38:28;;;;;;;;;7.67;5.00;;;;;18.37;68.00;100890.97;5097509;27;45436;-65
2022/10/26 09:41:04;;;;;;;;;22.33;21.33;;;;;18.44;67.57;100897.63;5096654;27;45526;-64
2022/10/26 09:43:49;;;;;;;;;3.75;3.75;;;;;18.49;67.31;100908.84;5097124;27;45425;-65
2022/10/26 09:46:21;;;;;;;;;2.00;1.25;;;;;18.51;67.10;100894.47;5096927;27;45447;-65
2022/10/26 09:48:52;;;;;;;;;3.75;2.00;;;;;18.58;66.85;100902.06;5097033;27;45319;-65
2022/10/26 09:51:18;;;;;;;;;5.75;4.00;;;;;18.61;66.30;100916.03;5096932;27;46496;-65
2022/10/26 09:53:44;;;;;;;;;1.00;1.00;;;;;18.64;66.24;100902.50;5096214;27;45464;-64
2022/10/26 09:56:11;;;;;;;;;2.00;2.00;;;;;18.69;65.73;100916.41;5096597;27;45590;-64
2022/10/26 09:58:42;;;;;;;;;4.75;4.75;;;;;18.71;66.28;100918.97;5096834;27;45528;-65
2022/10/26 10:01:34;;;;;;;;;4.00;3.25;;;;;18.75;65.76;100921.38;5095227;27;46736;-66
2022/10/26 10:04:12;;;;;;;;;8.33;6.00;;;;;18.82;65.42;100936.97;5096705;27;45368;-64
2022/10/26 10:06:39;;;;;;;;;5.25;5.00;;;;;18.85;65.42;100936.78;5096698;27;45432;-64
2022/10/26 10:09:13;;;;;;;;;4.00;4.00;;;;;18.88;65.86;100941.91;5096559;27;45427;-65
2022/10/26 10:12:01;;;;;;;;;5.50;5.50;;;;;18.92;65.27;100946.09;5096425;27;45548;-65
2022/10/26 10:14:32;;;;;;;;;4.00;4.00;;;;;18.94;64.40;100941.50;5092218;27;45616;-64
2022/10/26 10:17:02;;;;;;;;;5.00;5.00;;;;;18.96;64.51;100936.91;5080505;27;45421;-64
2022/10/26 10:19:33;;;;;;;;;4.00;3.00;;;;;19.04;64.30;100950.59;5088269;27;45603;-65
2022/10/26 10:22:07;;;;;;;;;2.00;2.00;;;;;19.09;64.07;100948.50;5096262;27;46180;-66
2022/10/26 10:24:35;;;;;;;;;5.00;3.25;;;;;19.12;64.37;100944.78;5096436;27;45344;-66
2022/10/26 10:27:17;;;;;;;;;6.75;6.75;;;;;19.23;64.02;100965.41;5096588;27;45432;-64
2022/10/26 10:29:45;;;;;;;;;3.50;2.00;;;;;19.42;62.92;100960.56;5096273;27;45421;-65
2022/10/26 10:32:22;;;;;;;;;7.00;6.50;;;;;19.40;63.37;100955.34;5096168;27;45556;-66
2022/10/26 10:34:50;;;;;;;;;4.25;4.25;;;;;19.39;63.30;100974.09;5096032;27;45386;-65
2022/10/26 10:37:33;;;;;;;;;4.00;3.00;;;;;19.38;63.13;100967.06;5096304;27;45416;-65
2022/10/26 10:40:07;;;;;;;;;10.75;8.50;;;;;19.35;63.47;100961.94;5096090;27;45314;-64
2022/10/26 10:42:36;;;;;;;;;14.00;12.00;;;;;19.35;63.55;100970.78;5094435;27;45442;-66
2022/10/26 10:45:02;;;;;;;;;5.00;5.00;;;;;19.35;63.83;100969.94;5096454;27;45890;-64
2022/10/26 10:50:19;;;;;;;;;2.25;2.25;;;;;19.39;64.07;100976.75;5096003;27;45551;-67
2022/10/26 10:52:45;;;;;;;;;1.50;1.50;;;;;19.40;63.16;100976.69;5095348;27;46251;-65
2022/10/26 10:55:16;;;;;;;;;2.25;1.00;;;;;19.40;63.60;100978.50;5095662;27;45472;-64
2022/10/26 10:58:14;;;;;;;;;1.50;1.50;;;;;19.45;63.05;100978.16;5095917;27;45449;-65
2022/10/26 11:00:43;;;;;;;;;6.00;3.00;;;;;19.43;63.14;100973.81;5090341;27;45351;-64
2022/10/26 11:03:30;;;;;;;;;5.00;4.00;;;;;19.49;63.57;100980.53;5095216;27;45477;-64
2022/10/26 11:06:30;;;;;;;;;2.00;2.00;;;;;19.53;62.96;100987.41;5095043;27;45392;-64
2022/10/26 11:09:01;;;;;;;;;6.25;6.25;;;;;19.55;63.44;100988.13;5063315;28;45479;-65
2022/10/26 11:11:31;;;;;;;;;2.00;2.00;;;;;19.59;63.00;100986.13;5077740;27;45380;-64
2022/10/26 11:14:30;;;;;;;;;3.50;3.00;;;;;19.60;63.19;100988.69;5095447;27;45450;-65
2022/10/26 11:17:06;;;;;;;;;5.67;5.33;;;;;19.61;62.89;100995.75;5077701;27;45406;-65
2022/10/26 11:19:45;;;;;;;;;6.25;6.00;;;;;19.58;63.48;100995.06;5095471;27;45471;-66
2022/10/26 11:22:15;;;;;;;;;3.75;3.75;;;;;19.63;63.74;100998.28;5095286;27;45354;-63
2022/10/26 11:25:39;;;;;;;;;3.75;3.25;;;;;19.67;62.85;100994.50;5095535;27;45506;-63
2022/10/26 11:28:15;;;;;;;;;4.25;4.25;;;;;19.71;62.85;100993.31;5071401;27;45450;-69
2022/10/26 11:30:48;;;;;;;;;5.25;4.25;;;;;19.74;62.92;101001.13;5083313;27;45496;-69
2022/10/26 11:33:35;;;;;;;;;2.75;2.75;;;;;19.75;62.99;100994.00;5095181;27;45479;-68
2022/10/26 11:36:07;;;;;;;;;3.00;3.00;;;;;19.77;63.52;101000.06;5092783;27;45515;-68
2022/10/26 11:38:48;;;;;;;;;4.00;3.75;;;;;19.78;63.13;100997.31;5083213;27;45525;-64
2022/10/26 11:41:22;;;;;;;;;3.00;3.00;;;;;19.81;62.87;101004.25;5086168;27;45528;-65
2022/10/26 11:43:52;;;;;;;;;4.00;4.00;;;;;19.86;62.90;101005.63;5094896;27;45488;-64
2022/10/26 11:46:26;;;;;;;;;3.00;3.00;;;;;19.89;62.56;101001.91;5095068;27;45453;-65